Time;durP1;ratioP1;P1;durP2;ratioP2;P2;SDS_P1;SDS_P2;PMS_P1;PMS_P2;Temp;Humidity;BMP_temperature;BMP_pressure;BME280_temperature;BME280_humidity;BME280_pressure;Samples;Min_cycle;Max_cycle;Signal;HPM_P1;HPM_P2
2022/03/24 00:01:47;;;;;;;35.88;29.83;;;;;;;;;;5071373;28;24409;-49
2022/03/24 00:04:12;;;;;;;34.92;29.00;;;;;;;;;;5067290;28;24414;-50
2022/03/24 00:06:37;;;;;;;33.78;30.08;;;;;;;;;;5069436;28;25192;-50
2022/03/24 00:09:03;;;;;;;35.70;29.80;;;;;;;;;;5078925;28;24462;-49
2022/03/24 00:11:28;;;;;;;33.20;29.13;;;;;;;;;;5071560;28;24564;-50
2022/03/24 00:13:54;;;;;;;33.95;29.38;;;;;;;;;;5071970;28;24480;-49
2022/03/24 00:16:19;;;;;;;37.22;29.17;;;;;;;;;;5070612;28;24500;-49
2022/03/24 00:18:45;;;;;;;35.50;29.73;;;;;;;;;;5082980;28;24500;-50
2022/03/24 00:21:11;;;;;;;35.20;29.63;;;;;;;;;;5070904;28;24410;-53
2022/03/24 00:23:36;;;;;;;35.27;29.90;;;;;;;;;;5081255;28;24948;-50
2022/03/24 00:26:02;;;;;;;36.10;29.90;;;;;;;;;;5073344;28;24500;-50
2022/03/24 00:28:27;;;;;;;33.08;29.15;;;;;;;;;;5083481;28;24766;-50
2022/03/24 00:30:52;;;;;;;36.87;29.70;;;;;;;;;;5077774;28;24456;-50
2022/03/24 00:33:17;;;;;;;34.47;29.47;;;;;;;;;;5078373;28;24767;-49
2022/03/24 00:35:43;;;;;;;33.30;28.60;;;;;;;;;;5082297;28;24455;-50
2022/03/24 00:38:08;;;;;;;35.17;30.03;;;;;;;;;;5079670;28;24770;-52
2022/03/24 00:40:34;;;;;;;32.90;28.60;;;;;;;;;;5074137;28;24507;-50
2022/03/24 00:42:59;;;;;;;38.20;30.42;;;;;;;;;;5080629;28;24952;-50
2022/03/24 00:45:24;;;;;;;32.17;28.40;;;;;;;;;;5075777;28;24458;-50
2022/03/24 00:47:50;;;;;;;33.30;28.97;;;;;;;;;;5082509;28;24445;-50
2022/03/24 00:50:15;;;;;;;35.70;29.40;;;;;;;;;;5072417;28;24422;-49
2022/03/24 00:52:44;;;;;;;34.07;28.30;;;;;;;;;;5083057;28;24460;-51
2022/03/24 00:55:14;;;;;;;32.63;28.85;;;;;;;;;;5087617;28;24444;-49
2022/03/24 00:57:40;;;;;;;32.53;28.27;;;;;;;;;;5069046;28;24480;-49
2022/03/24 01:00:06;;;;;;;32.83;28.02;;;;;;;;;;5077136;28;24807;-50
2022/03/24 01:02:31;;;;;;;33.08;28.05;;;;;;;;;;5084745;28;24456;-50
2022/03/24 01:04:56;;;;;;;34.87;29.10;;;;;;;;;;5078723;28;24542;-49
2022/03/24 01:07:22;;;;;;;32.33;27.50;;;;;;;;;;5088062;28;24467;-50
2022/03/24 01:09:47;;;;;;;31.20;27.10;;;;;;;;;;5095421;28;24414;-50
2022/03/24 01:12:13;;;;;;;32.40;26.80;;;;;;;;;;5079960;28;24441;-49
2022/03/24 01:14:38;;;;;;;31.95;28.00;;;;;;;;;;5077130;28;24471;-50
2022/03/24 01:17:04;;;;;;;33.08;27.35;;;;;;;;;;5083224;28;24402;-50
2022/03/24 01:19:29;;;;;;;34.47;28.88;;;;;;;;;;5076954;28;24414;-51
2022/03/24 01:21:54;;;;;;;34.53;28.53;;;;;;;;;;5078988;28;24514;-50
2022/03/24 01:24:20;;;;;;;34.15;28.80;;;;;;;;;;5069539;28;24617;-50
2022/03/24 01:26:45;;;;;;;31.80;27.43;;;;;;;;;;5072355;28;24553;-50
2022/03/24 01:29:12;;;;;;;34.13;28.57;;;;;;;;;;5073673;28;24964;-50
2022/03/24 01:31:42;;;;;;;34.50;29.40;;;;;;;;;;5081631;28;24447;-50
2022/03/24 01:34:07;;;;;;;33.33;28.77;;;;;;;;;;5077302;28;24415;-50
2022/03/24 01:36:33;;;;;;;34.50;29.37;;;;;;;;;;5079661;28;24464;-50
2022/03/24 01:38:58;;;;;;;31.45;27.60;;;;;;;;;;5076491;28;24973;-50
2022/03/24 01:41:23;;;;;;;32.00;27.50;;;;;;;;;;5076971;28;24964;-49
2022/03/24 01:43:49;;;;;;;33.33;28.83;;;;;;;;;;5069560;28;24409;-49
2022/03/24 01:46:18;;;;;;;33.05;28.00;;;;;;;;;;5070517;28;24426;-49
2022/03/24 01:48:44;;;;;;;33.58;28.17;;;;;;;;;;5081829;28;24469;-51
2022/03/24 01:51:10;;;;;;;31.23;27.48;;;;;;;;;;5078929;28;25029;-49
2022/03/24 01:53:35;;;;;;;32.78;27.70;;;;;;;;;;5070065;28;24982;-49
2022/03/24 01:56:00;;;;;;;34.33;28.92;;;;;;;;;;5071955;28;24458;-49
2022/03/24 01:58:25;;;;;;;33.83;28.30;;;;;;;;;;5077548;28;24500;-49
2022/03/24 02:00:51;;;;;;;30.23;26.92;;;;;;;;;;5071909;28;24417;-49
2022/03/24 02:03:17;;;;;;;32.42;26.70;;;;;;;;;;5080489;28;24425;-50
2022/03/24 02:05:42;;;;;;;31.85;27.17;;;;;;;;;;5079413;28;24418;-50
2022/03/24 02:08:08;;;;;;;32.43;27.63;;;;;;;;;;5072019;28;24410;-50
2022/03/24 02:10:36;;;;;;;32.57;27.20;;;;;;;;;;5084316;28;24513;-50
2022/03/24 02:13:03;;;;;;;30.70;26.10;;;;;;;;;;5071421;28;24452;-50
2022/03/24 02:15:28;;;;;;;30.58;27.27;;;;;;;;;;5075308;28;24414;-50
2022/03/24 02:17:53;;;;;;;33.20;28.87;;;;;;;;;;5077356;28;24789;-50
2022/03/24 02:20:22;;;;;;;37.30;28.33;;;;;;;;;;5069510;28;24503;-50
2022/03/24 02:22:48;;;;;;;31.38;27.40;;;;;;;;;;5077949;28;24424;-51
2022/03/24 02:25:13;;;;;;;33.13;28.50;;;;;;;;;;5081457;28;24506;-50
2022/03/24 02:27:39;;;;;;;32.50;28.63;;;;;;;;;;5073661;28;24553;-50
2022/03/24 02:30:04;;;;;;;34.55;27.45;;;;;;;;;;5081142;28;24463;-50
2022/03/24 02:32:30;;;;;;;33.27;26.73;;;;;;;;;;5079913;28;24485;-50
2022/03/24 02:34:55;;;;;;;33.63;28.80;;;;;;;;;;5074463;28;24410;-49
2022/03/24 02:37:22;;;;;;;34.00;27.50;;;;;;;;;;5073471;28;24465;-49
2022/03/24 02:39:49;;;;;;;34.40;28.77;;;;;;;;;;5080523;28;24414;-49
2022/03/24 02:42:15;;;;;;;32.60;27.45;;;;;;;;;;5073359;28;24530;-51
2022/03/24 02:44:42;;;;;;;33.58;28.23;;;;;;;;;;5073271;28;24498;-49
2022/03/24 02:47:08;;;;;;;32.10;27.27;;;;;;;;;;5082736;28;24421;-49
2022/03/24 02:49:34;;;;;;;32.45;28.95;;;;;;;;;;5078265;28;24462;-49
2022/03/24 02:52:00;;;;;;;37.13;29.70;;;;;;;;;;5074743;28;24970;-49
2022/03/24 02:54:27;;;;;;;34.25;28.33;;;;;;;;;;5084611;28;24422;-49
2022/03/24 02:56:52;;;;;;;34.80;27.63;;;;;;;;;;5073170;28;25225;-49
2022/03/24 02:59:17;;;;;;;33.87;27.93;;;;;;;;;;5078201;28;24463;-49
2022/03/24 03:01:45;;;;;;;30.70;27.38;;;;;;;;;;5073986;28;24476;-50
2022/03/24 03:04:12;;;;;;;32.63;27.55;;;;;;;;;;5074906;28;24445;-50
2022/03/24 03:06:38;;;;;;;31.10;27.30;;;;;;;;;;5073152;28;24419;-52
2022/03/24 03:09:04;;;;;;;31.98;25.92;;;;;;;;;;5074062;28;24430;-50
2022/03/24 03:11:32;;;;;;;29.63;26.30;;;;;;;;;;5083435;28;24417;-50
2022/03/24 03:13:58;;;;;;;30.75;26.45;;;;;;;;;;5078268;28;24579;-49
2022/03/24 03:16:23;;;;;;;35.70;27.33;;;;;;;;;;5067665;28;25032;-49
2022/03/24 03:18:49;;;;;;;32.17;28.17;;;;;;;;;;5071756;28;24430;-50
2022/03/24 03:21:16;;;;;;;32.53;27.20;;;;;;;;;;5072590;28;25094;-50
2022/03/24 03:23:43;;;;;;;31.05;25.85;;;;;;;;;;5071635;28;24414;-50
2022/03/24 03:26:09;;;;;;;33.50;27.98;;;;;;;;;;5068069;28;24442;-52
2022/03/24 03:28:34;;;;;;;31.40;26.50;;;;;;;;;;5074135;28;24422;-50
2022/03/24 03:31:00;;;;;;;33.10;28.30;;;;;;;;;;5071431;28;24433;-49
2022/03/24 03:33:25;;;;;;;35.55;28.77;;;;;;;;;;5074400;28;24402;-50
2022/03/24 03:35:51;;;;;;;35.80;29.10;;;;;;;;;;5080758;28;24575;-49
2022/03/24 03:38:18;;;;;;;35.58;30.05;;;;;;;;;;5074161;28;24500;-50
2022/03/24 03:40:43;;;;;;;33.00;29.40;;;;;;;;;;5079976;28;24429;-50
2022/03/24 03:43:10;;;;;;;32.03;27.73;;;;;;;;;;5080724;28;24777;-50
2022/03/24 03:45:36;;;;;;;32.97;27.93;;;;;;;;;;5066660;28;24551;-50
2022/03/24 03:48:01;;;;;;;33.83;28.90;;;;;;;;;;5069653;28;24788;-50
2022/03/24 03:50:26;;;;;;;32.80;28.47;;;;;;;;;;5080271;28;24424;-49
2022/03/24 03:52:52;;;;;;;34.00;28.00;;;;;;;;;;5083832;28;25025;-49
2022/03/24 03:55:17;;;;;;;34.17;28.50;;;;;;;;;;5071491;28;25014;-50
2022/03/24 03:57:42;;;;;;;33.00;26.73;;;;;;;;;;5080412;28;24518;-50
2022/03/24 04:02:51;;;;;;;33.13;26.88;;;;;;;;;;5072701;28;24476;-50
2022/03/24 04:05:23;;;;;;;32.57;26.90;;;;;;;;;;5070026;28;24474;-50
2022/03/24 04:07:48;;;;;;;33.70;26.80;;;;;;;;;;5076587;28;24413;-50
2022/03/24 04:10:14;;;;;;;35.53;28.70;;;;;;;;;;5066282;28;24422;-50
2022/03/24 04:12:39;;;;;;;34.55;28.10;;;;;;;;;;5069821;28;24450;-50
2022/03/24 04:15:04;;;;;;;34.15;27.95;;;;;;;;;;5076457;28;24572;-50
2022/03/24 04:17:29;;;;;;;32.37;25.80;;;;;;;;;;5069907;28;24434;-49
2022/03/24 04:19:54;;;;;;;32.92;27.38;;;;;;;;;;5082738;28;24467;-49
2022/03/24 04:22:20;;;;;;;30.30;25.83;;;;;;;;;;5074558;28;24430;-51
2022/03/24 04:24:45;;;;;;;33.47;27.30;;;;;;;;;;5070188;28;24999;-50
2022/03/24 04:27:12;;;;;;;32.07;26.90;;;;;;;;;;5076446;28;24451;-50
2022/03/24 04:29:37;;;;;;;32.13;26.67;;;;;;;;;;5069463;28;24437;-50
2022/03/24 04:32:02;;;;;;;31.67;25.73;;;;;;;;;;5072420;28;24433;-49
2022/03/24 04:34:27;;;;;;;30.43;25.40;;;;;;;;;;5067265;28;24430;-50
2022/03/24 04:36:52;;;;;;;31.42;26.75;;;;;;;;;;5077117;28;25149;-50
2022/03/24 04:39:17;;;;;;;32.55;26.30;;;;;;;;;;5072490;28;24975;-49
2022/03/24 04:41:42;;;;;;;31.95;25.92;;;;;;;;;;5078213;28;24414;-49
2022/03/24 04:44:08;;;;;;;31.20;26.50;;;;;;;;;;5074812;28;24423;-50
2022/03/24 04:46:33;;;;;;;35.03;27.90;;;;;;;;;;5080984;28;24429;-49
2022/03/24 04:48:58;;;;;;;30.17;26.03;;;;;;;;;;5079253;28;24422;-49
2022/03/24 04:51:23;;;;;;;32.60;27.00;;;;;;;;;;5069325;28;24917;-50
2022/03/24 04:53:48;;;;;;;33.45;26.23;;;;;;;;;;5081679;28;24417;-50
2022/03/24 04:56:14;;;;;;;33.40;26.47;;;;;;;;;;5085015;28;24470;-49
2022/03/24 04:58:39;;;;;;;30.33;26.30;;;;;;;;;;5078119;28;24995;-49
2022/03/24 05:01:04;;;;;;;30.90;26.00;;;;;;;;;;5075923;28;24967;-49
2022/03/24 05:03:29;;;;;;;30.98;25.65;;;;;;;;;;5074665;28;24707;-50
2022/03/24 05:05:54;;;;;;;32.53;26.30;;;;;;;;;;5073204;28;24773;-49
2022/03/24 05:08:20;;;;;;;31.77;26.03;;;;;;;;;;5075904;28;24502;-50
2022/03/24 05:10:45;;;;;;;31.27;27.00;;;;;;;;;;5070848;28;24422;-50
2022/03/24 05:13:10;;;;;;;30.55;26.00;;;;;;;;;;5073716;28;24527;-50
2022/03/24 05:15:35;;;;;;;34.80;26.85;;;;;;;;;;5075730;28;24419;-52
2022/03/24 05:18:00;;;;;;;32.87;27.10;;;;;;;;;;5076276;28;24483;-49
2022/03/24 05:20:26;;;;;;;29.73;26.30;;;;;;;;;;5073308;28;24414;-50
2022/03/24 05:22:51;;;;;;;31.40;25.93;;;;;;;;;;5078247;28;24421;-50
2022/03/24 05:25:16;;;;;;;31.75;26.00;;;;;;;;;;5076668;28;24422;-50
2022/03/24 05:27:41;;;;;;;31.03;25.43;;;;;;;;;;5084225;28;24425;-50
2022/03/24 05:30:07;;;;;;;31.50;25.80;;;;;;;;;;5079140;28;24979;-50
2022/03/24 05:32:32;;;;;;;28.80;24.30;;;;;;;;;;5076079;28;24508;-50
2022/03/24 05:35:13;;;;;;;28.63;24.80;;;;;;;;;;5076066;28;24418;-50
2022/03/24 05:37:38;;;;;;;31.43;26.17;;;;;;;;;;5073596;28;25031;-50
2022/03/24 05:40:03;;;;;;;31.20;27.10;;;;;;;;;;5073991;28;24433;-50
2022/03/24 05:42:28;;;;;;;29.98;25.88;;;;;;;;;;5065712;28;24426;-50
2022/03/24 05:44:54;;;;;;;31.73;26.07;;;;;;;;;;5066193;28;24446;-50
2022/03/24 05:47:19;;;;;;;31.70;27.52;;;;;;;;;;5066935;28;25233;-51
2022/03/24 05:49:44;;;;;;;35.03;28.70;;;;;;;;;;5070909;28;24419;-51
2022/03/24 05:52:09;;;;;;;33.50;28.60;;;;;;;;;;5069619;28;24481;-50
2022/03/24 05:54:35;;;;;;;30.30;25.27;;;;;;;;;;5077941;28;25067;-50
2022/03/24 05:57:00;;;;;;;32.95;27.05;;;;;;;;;;5066241;28;24399;-50
2022/03/24 05:59:26;;;;;;;30.50;26.40;;;;;;;;;;5065739;28;24402;-50
2022/03/24 06:01:51;;;;;;;32.97;27.45;;;;;;;;;;5072319;28;24426;-50
2022/03/24 06:04:18;;;;;;;32.05;25.83;;;;;;;;;;5087259;27;24429;-50
2022/03/24 06:06:43;;;;;;;31.38;26.83;;;;;;;;;;5079041;28;24459;-51
2022/03/24 06:09:09;;;;;;;31.38;26.67;;;;;;;;;;5068489;28;24426;-50
2022/03/24 06:11:35;;;;;;;29.67;26.37;;;;;;;;;;5075544;28;24406;-51
2022/03/24 06:14:01;;;;;;;29.35;25.00;;;;;;;;;;5072951;28;24445;-51
2022/03/24 06:16:27;;;;;;;31.60;26.60;;;;;;;;;;5070045;28;24418;-50
2022/03/24 06:18:52;;;;;;;28.75;24.83;;;;;;;;;;5069993;28;24658;-50
2022/03/24 06:21:17;;;;;;;31.27;26.00;;;;;;;;;;5082618;28;24773;-50
2022/03/24 06:23:42;;;;;;;29.30;25.20;;;;;;;;;;5081866;28;24407;-50
2022/03/24 06:26:08;;;;;;;27.93;24.50;;;;;;;;;;5078576;28;25197;-50
2022/03/24 06:28:34;;;;;;;28.05;23.33;;;;;;;;;;5082253;28;24453;-49
2022/03/24 06:31:00;;;;;;;30.42;24.63;;;;;;;;;;5088511;28;24414;-49
2022/03/24 06:33:25;;;;;;;32.22;25.60;;;;;;;;;;5068809;28;24437;-50
2022/03/24 06:35:50;;;;;;;30.20;26.30;;;;;;;;;;5068504;28;24399;-50
2022/03/24 06:38:16;;;;;;;31.43;26.70;;;;;;;;;;5067821;28;24466;-50
2022/03/24 06:40:41;;;;;;;30.00;24.00;;;;;;;;;;5067783;28;24456;-50
2022/03/24 06:43:07;;;;;;;29.43;23.83;;;;;;;;;;5079608;28;24460;-50
2022/03/24 06:45:33;;;;;;;31.85;25.38;;;;;;;;;;5088192;28;24780;-50
2022/03/24 06:47:58;;;;;;;29.03;24.23;;;;;;;;;;5084135;28;24497;-50
2022/03/24 06:50:23;;;;;;;30.00;24.70;;;;;;;;;;5076901;28;24863;-50
2022/03/24 06:52:48;;;;;;;27.53;24.17;;;;;;;;;;5079077;28;24406;-50
2022/03/24 06:55:13;;;;;;;26.40;23.70;;;;;;;;;;5088316;28;24707;-50
2022/03/24 06:57:39;;;;;;;28.47;24.70;;;;;;;;;;5086021;28;24460;-50
2022/03/24 07:00:05;;;;;;;30.07;25.10;;;;;;;;;;5079937;28;24403;-50
2022/03/24 07:02:30;;;;;;;33.22;23.55;;;;;;;;;;5069668;28;24445;-50
2022/03/24 07:04:55;;;;;;;28.73;24.30;;;;;;;;;;5071398;28;24957;-50
2022/03/24 07:07:20;;;;;;;26.52;23.60;;;;;;;;;;5081656;28;24573;-50
2022/03/24 07:09:45;;;;;;;28.40;24.30;;;;;;;;;;5072164;28;24422;-50
2022/03/24 07:12:11;;;;;;;27.70;23.83;;;;;;;;;;5071438;28;24802;-50
2022/03/24 07:14:36;;;;;;;30.67;24.57;;;;;;;;;;5077859;28;24484;-51
2022/03/24 07:17:01;;;;;;;27.50;24.50;;;;;;;;;;5067315;28;24503;-50
2022/03/24 07:19:26;;;;;;;27.93;24.93;;;;;;;;;;5074260;28;24429;-50
2022/03/24 07:21:51;;;;;;;28.83;24.40;;;;;;;;;;5067859;28;24411;-50
2022/03/24 07:24:16;;;;;;;31.40;25.60;;;;;;;;;;5067205;28;25423;-50
2022/03/24 07:26:42;;;;;;;30.02;25.45;;;;;;;;;;5067054;28;24481;-50
2022/03/24 07:29:10;;;;;;;30.50;25.45;;;;;;;;;;5071137;28;25045;-50
2022/03/24 07:31:36;;;;;;;30.08;24.48;;;;;;;;;;5087535;28;24467;-50
2022/03/24 07:34:02;;;;;;;30.33;25.85;;;;;;;;;;5087287;28;24978;-50
2022/03/24 07:36:27;;;;;;;28.35;23.58;;;;;;;;;;5087347;28;24433;-51
2022/03/24 07:38:53;;;;;;;27.02;24.13;;;;;;;;;;5087568;28;24474;-50
2022/03/24 07:41:19;;;;;;;29.20;24.40;;;;;;;;;;5085292;28;24448;-50
2022/03/24 07:43:44;;;;;;;28.70;25.40;;;;;;;;;;5087267;28;24394;-50
2022/03/24 07:46:09;;;;;;;28.70;25.47;;;;;;;;;;5087424;28;24390;-50
2022/03/24 07:48:35;;;;;;;30.57;25.77;;;;;;;;;;5087424;28;24425;-50
2022/03/24 07:51:00;;;;;;;31.27;26.30;;;;;;;;;;5084926;28;24448;-50
2022/03/24 07:53:28;;;;;;;30.50;25.40;;;;;;;;;;5087146;28;24386;-50
2022/03/24 07:55:55;;;;;;;32.75;26.73;;;;;;;;;;5087230;28;24402;-51
2022/03/24 07:58:21;;;;;;;30.80;26.40;;;;;;;;;;5086720;28;24417;-50
2022/03/24 08:00:46;;;;;;;29.50;26.30;;;;;;;;;;5081574;28;25147;-51
2022/03/24 08:03:13;;;;;;;31.33;26.60;;;;;;;;;;5087098;28;24409;-51
2022/03/24 08:05:38;;;;;;;31.70;26.70;;;;;;;;;;5086554;28;24398;-50
2022/03/24 08:08:04;;;;;;;31.73;26.20;;;;;;;;;;5087147;28;24458;-51
2022/03/24 08:10:29;;;;;;;29.97;26.53;;;;;;;;;;5086414;28;24962;-51
2022/03/24 08:12:54;;;;;;;31.17;27.67;;;;;;;;;;5085003;28;24942;-51
2022/03/24 08:15:19;;;;;;;31.00;27.10;;;;;;;;;;5086978;28;24398;-50
2022/03/24 08:17:44;;;;;;;34.10;27.50;;;;;;;;;;5086890;28;24931;-50
2022/03/24 08:20:09;;;;;;;33.65;28.98;;;;;;;;;;5086848;28;24946;-50
2022/03/24 08:22:35;;;;;;;29.93;25.90;;;;;;;;;;5085071;28;24475;-50
2022/03/24 08:25:00;;;;;;;30.73;26.45;;;;;;;;;;5086488;28;24394;-50
2022/03/24 08:27:25;;;;;;;35.27;29.03;;;;;;;;;;5086569;28;24430;-51
2022/03/24 08:29:50;;;;;;;33.15;28.38;;;;;;;;;;5087672;28;24425;-51
2022/03/24 08:32:16;;;;;;;30.65;27.35;;;;;;;;;;5090470;28;24909;-50
2022/03/24 08:34:41;;;;;;;32.90;27.17;;;;;;;;;;5090377;28;24424;-50
2022/03/24 08:37:06;;;;;;;33.53;28.97;;;;;;;;;;5090964;28;24969;-50
2022/03/24 08:39:32;;;;;;;33.63;29.40;;;;;;;;;;5087981;28;24392;-50
2022/03/24 08:41:57;;;;;;;32.60;28.10;;;;;;;;;;5089000;28;25100;-50
2022/03/24 08:44:22;;;;;;;31.13;27.73;;;;;;;;;;5090673;28;24421;-54
2022/03/24 08:46:47;;;;;;;36.17;29.80;;;;;;;;;;5090211;28;24402;-51
2022/03/24 08:49:12;;;;;;;37.15;31.05;;;;;;;;;;5090536;28;24918;-50
2022/03/24 08:51:37;;;;;;;33.33;27.80;;;;;;;;;;5090192;28;24765;-50
2022/03/24 08:54:03;;;;;;;37.97;30.90;;;;;;;;;;5090384;28;24394;-51
2022/03/24 08:56:28;;;;;;;35.40;30.90;;;;;;;;;;5090539;28;24432;-50
2022/03/24 08:58:53;;;;;;;34.33;30.63;;;;;;;;;;5090420;28;24486;-51
2022/03/24 09:01:19;;;;;;;36.20;30.10;;;;;;;;;;5089828;28;24456;-51
2022/03/24 09:03:44;;;;;;;37.43;30.80;;;;;;;;;;5090280;28;24493;-50
2022/03/24 09:06:09;;;;;;;37.00;31.50;;;;;;;;;;5089911;28;24905;-50
2022/03/24 09:08:35;;;;;;;35.40;31.50;;;;;;;;;;5089948;28;24406;-51
2022/03/24 09:11:00;;;;;;;34.67;30.80;;;;;;;;;;5090173;28;25005;-50
2022/03/24 09:13:26;;;;;;;36.28;30.05;;;;;;;;;;5089978;28;24417;-50
2022/03/24 09:15:51;;;;;;;33.75;29.60;;;;;;;;;;5089865;28;25053;-50
2022/03/24 09:18:17;;;;;;;38.60;31.53;;;;;;;;;;5090142;28;24508;-49
2022/03/24 09:20:42;;;;;;;37.07;33.07;;;;;;;;;;5089018;28;24386;-50
2022/03/24 09:23:08;;;;;;;39.67;33.23;;;;;;;;;;5089567;28;24381;-50
2022/03/24 09:25:34;;;;;;;38.20;32.97;;;;;;;;;;5089882;28;24439;-51
2022/03/24 09:27:59;;;;;;;39.95;33.80;;;;;;;;;;5089538;28;24583;-50
2022/03/24 09:30:24;;;;;;;40.22;31.67;;;;;;;;;;5084848;28;24437;-49
2022/03/24 09:32:49;;;;;;;35.47;29.73;;;;;;;;;;5067454;28;24803;-49
2022/03/24 09:35:15;;;;;;;33.43;29.57;;;;;;;;;;5069065;28;24991;-50
2022/03/24 09:37:41;;;;;;;38.20;32.37;;;;;;;;;;5069048;28;24559;-51
2022/03/24 09:40:07;;;;;;;33.95;30.08;;;;;;;;;;5087479;28;24402;-50
2022/03/24 09:42:32;;;;;;;35.78;30.05;;;;;;;;;;5087867;28;24408;-50
2022/03/24 09:44:58;;;;;;;37.43;32.07;;;;;;;;;;5087261;28;24417;-50
2022/03/24 09:47:26;;;;;;;34.92;31.13;;;;;;;;;;5089662;28;24401;-50
2022/03/24 09:49:51;;;;;;;37.38;33.20;;;;;;;;;;5088801;28;24509;-50
2022/03/24 09:52:16;;;;;;;36.27;31.00;;;;;;;;;;5089029;28;24537;-51
2022/03/24 09:54:42;;;;;;;34.03;29.35;;;;;;;;;;5087735;28;24415;-50
2022/03/24 09:57:08;;;;;;;36.22;31.20;;;;;;;;;;5078035;28;25078;-50
2022/03/24 09:59:34;;;;;;;35.10;29.73;;;;;;;;;;5068738;28;24425;-50
2022/03/24 10:02:01;;;;;;;38.30;31.10;;;;;;;;;;5069196;28;24399;-50
2022/03/24 10:04:26;;;;;;;37.95;33.63;;;;;;;;;;5068832;28;24391;-50
2022/03/24 10:07:01;;;;;;;37.43;32.43;;;;;;;;;;5068545;28;24452;-50
2022/03/24 10:09:37;;;;;;;35.70;31.90;;;;;;;;;;5077252;28;24466;-51
2022/03/24 10:12:03;;;;;;;36.80;31.02;;;;;;;;;;5089094;28;24571;-51
2022/03/24 10:14:28;;;;;;;35.63;30.58;;;;;;;;;;5088690;28;24393;-50
2022/03/24 10:16:54;;;;;;;37.37;32.93;;;;;;;;;;5089093;28;24877;-50
2022/03/24 10:19:19;;;;;;;37.78;31.95;;;;;;;;;;5086923;28;24582;-50
2022/03/24 10:21:46;;;;;;;36.22;32.35;;;;;;;;;;5088330;28;24391;-50
2022/03/24 10:24:22;;;;;;;37.50;33.45;;;;;;;;;;5088590;28;24429;-50
2022/03/24 10:26:55;;;;;;;38.92;34.17;;;;;;;;;;5088313;28;25027;-50
2022/03/24 10:29:22;;;;;;;41.15;32.92;;;;;;;;;;5087311;28;24418;-50
2022/03/24 10:31:51;;;;;;;37.80;33.67;;;;;;;;;;5068334;28;24401;-50
2022/03/24 10:34:26;;;;;;;35.92;31.95;;;;;;;;;;5068501;28;24391;-51
2022/03/24 10:36:51;;;;;;;36.13;31.30;;;;;;;;;;5069512;28;24492;-50
2022/03/24 10:39:23;;;;;;;37.83;33.73;;;;;;;;;;5088441;28;24421;-50
2022/03/24 10:41:48;;;;;;;34.25;30.42;;;;;;;;;;5086119;28;24410;-50
2022/03/24 10:44:13;;;;;;;39.63;31.65;;;;;;;;;;5088037;28;24528;-53
2022/03/24 10:46:41;;;;;;;35.33;31.53;;;;;;;;;;5088358;28;25092;-51
2022/03/24 10:49:20;;;;;;;37.90;33.17;;;;;;;;;;5088763;28;24394;-50
2022/03/24 10:51:47;;;;;;;31.80;28.30;;;;;;;;;;5085757;28;25018;-50
2022/03/24 10:54:19;;;;;;;35.47;31.38;;;;;;;;;;5087639;28;24955;-50
2022/03/24 10:56:46;;;;;;;36.33;31.30;;;;;;;;;;5088035;28;25008;-51
2022/03/24 10:59:11;;;;;;;36.80;30.70;;;;;;;;;;5087983;28;24940;-50
2022/03/24 11:01:37;;;;;;;33.75;29.17;;;;;;;;;;5085884;28;24421;-51
2022/03/24 11:04:02;;;;;;;33.22;29.13;;;;;;;;;;5087807;28;24975;-49
2022/03/24 11:06:29;;;;;;;31.77;28.43;;;;;;;;;;5088104;28;24405;-49
2022/03/24 11:08:59;;;;;;;30.73;27.43;;;;;;;;;;5086160;28;25091;-50
2022/03/24 11:11:25;;;;;;;34.58;28.85;;;;;;;;;;5084599;28;24775;-49
2022/03/24 11:13:55;;;;;;;29.50;26.17;;;;;;;;;;5067498;28;24951;-49
2022/03/24 11:16:21;;;;;;;28.85;25.75;;;;;;;;;;5067473;28;24391;-49
2022/03/24 11:18:47;;;;;;;26.52;23.63;;;;;;;;;;5067278;28;24397;-51
2022/03/24 11:21:13;;;;;;;31.30;26.50;;;;;;;;;;5067169;28;24414;-50
2022/03/24 11:23:41;;;;;;;29.10;25.20;;;;;;;;;;5080722;28;24418;-51
2022/03/24 11:26:07;;;;;;;27.50;24.52;;;;;;;;;;5087466;28;24437;-50
2022/03/24 11:28:35;;;;;;;25.73;22.88;;;;;;;;;;5087666;28;24379;-50
2022/03/24 11:31:02;;;;;;;24.60;21.95;;;;;;;;;;5087261;28;24440;-50
2022/03/24 11:33:36;;;;;;;23.30;20.80;;;;;;;;;;5085313;28;24426;-50
2022/03/24 11:36:01;;;;;;;23.80;20.90;;;;;;;;;;5087487;28;24487;-49
2022/03/24 11:38:26;;;;;;;27.60;24.55;;;;;;;;;;5087572;28;24925;-50
2022/03/24 11:40:51;;;;;;;25.63;22.92;;;;;;;;;;5087138;28;24378;-50
2022/03/24 11:43:20;;;;;;;25.10;22.03;;;;;;;;;;5085365;28;24394;-50
2022/03/24 11:45:48;;;;;;;23.65;21.08;;;;;;;;;;5087284;28;24483;-51
2022/03/24 11:48:14;;;;;;;22.90;20.50;;;;;;;;;;5087747;28;24515;-51
2022/03/24 11:50:45;;;;;;;25.25;22.55;;;;;;;;;;5087036;28;24490;-51
2022/03/24 11:53:13;;;;;;;25.33;22.63;;;;;;;;;;5087474;28;24469;-51
2022/03/24 11:55:39;;;;;;;25.00;22.30;;;;;;;;;;5085752;28;24417;-51
2022/03/24 11:58:04;;;;;;;25.33;22.83;;;;;;;;;;5087148;28;24390;-50
2022/03/24 12:00:30;;;;;;;25.70;22.87;;;;;;;;;;5086661;28;24405;-51
2022/03/24 12:02:58;;;;;;;26.20;23.38;;;;;;;;;;5087116;28;24815;-51
2022/03/24 12:05:43;;;;;;;28.48;25.48;;;;;;;;;;5084306;28;25028;-51
2022/03/24 12:08:09;;;;;;;24.45;21.75;;;;;;;;;;5086773;28;24776;-49
2022/03/24 12:10:34;;;;;;;27.50;24.20;;;;;;;;;;5087137;28;24406;-49
2022/03/24 12:13:21;;;;;;;27.53;24.53;;;;;;;;;;5087005;28;24402;-49
2022/03/24 12:16:06;;;;;;;27.73;24.73;;;;;;;;;;5066458;28;24398;-49
2022/03/24 12:18:41;;;;;;;27.40;24.23;;;;;;;;;;5066702;28;24624;-49
2022/03/24 12:21:07;;;;;;;26.67;23.73;;;;;;;;;;5066586;28;24398;-49
2022/03/24 12:23:51;;;;;;;27.42;24.42;;;;;;;;;;5067013;28;24395;-49
2022/03/24 12:26:17;;;;;;;28.35;24.40;;;;;;;;;;5066378;28;24562;-50
2022/03/24 12:28:43;;;;;;;27.10;24.20;;;;;;;;;;5083751;28;24538;-52
2022/03/24 12:31:08;;;;;;;26.52;23.83;;;;;;;;;;5087041;28;24934;-50
2022/03/24 12:33:47;;;;;;;27.27;23.80;;;;;;;;;;5082202;28;25036;-49
2022/03/24 12:36:14;;;;;;;30.02;25.85;;;;;;;;;;5085782;28;24408;-49
2022/03/24 12:38:53;;;;;;;26.02;23.33;;;;;;;;;;5086811;28;24410;-49
2022/03/24 12:41:21;;;;;;;26.13;23.00;;;;;;;;;;5087142;28;24390;-50
2022/03/24 12:44:03;;;;;;;27.83;24.73;;;;;;;;;;5084948;28;24457;-49
2022/03/24 12:46:36;;;;;;;32.88;26.35;;;;;;;;;;5086870;28;24405;-49
2022/03/24 12:49:23;;;;;;;31.95;25.25;;;;;;;;;;5086614;28;24545;-50
2022/03/24 12:51:50;;;;;;;28.08;25.13;;;;;;;;;;5086753;28;24451;-49
2022/03/24 12:54:16;;;;;;;28.20;25.00;;;;;;;;;;5085557;28;24432;-51
2022/03/24 12:56:43;;;;;;;29.08;25.88;;;;;;;;;;5087158;28;24414;-49
2022/03/24 12:59:08;;;;;;;29.42;26.35;;;;;;;;;;5086355;28;24974;-50
2022/03/24 13:01:34;;;;;;;31.52;26.25;;;;;;;;;;5086648;28;24409;-50
2022/03/24 13:04:00;;;;;;;29.63;26.43;;;;;;;;;;5086325;28;24453;-50
2022/03/24 13:06:26;;;;;;;28.50;25.50;;;;;;;;;;5084584;28;24406;-50
2022/03/24 13:09:10;;;;;;;28.60;25.43;;;;;;;;;;5086690;28;24447;-51
2022/03/24 13:11:55;;;;;;;28.90;25.80;;;;;;;;;;5086042;28;24414;-51
2022/03/24 13:14:21;;;;;;;30.08;26.42;;;;;;;;;;5086364;28;24760;-51
2022/03/24 13:17:00;;;;;;;26.92;24.13;;;;;;;;;;5087422;28;24432;-51
2022/03/24 13:19:26;;;;;;;28.90;25.90;;;;;;;;;;5089891;28;24425;-50
2022/03/24 13:21:51;;;;;;;27.25;23.70;;;;;;;;;;5075360;28;24944;-51
2022/03/24 13:24:21;;;;;;;33.00;28.47;;;;;;;;;;5069655;28;24452;-50
2022/03/24 13:26:59;;;;;;;29.23;25.23;;;;;;;;;;5069409;28;24434;-51
2022/03/24 13:29:46;;;;;;;28.98;25.98;;;;;;;;;;5069991;28;24395;-51
2022/03/24 13:32:12;;;;;;;28.88;25.77;;;;;;;;;;5081837;28;24464;-51
2022/03/24 13:34:38;;;;;;;30.27;27.02;;;;;;;;;;5089645;28;24413;-50
2022/03/24 13:37:10;;;;;;;29.60;26.40;;;;;;;;;;5089775;28;24395;-50
2022/03/24 13:39:36;;;;;;;27.55;24.65;;;;;;;;;;5088482;28;24407;-50
2022/03/24 13:42:01;;;;;;;28.17;25.17;;;;;;;;;;5089277;28;24780;-50
2022/03/24 13:44:26;;;;;;;29.10;26.00;;;;;;;;;;5089600;28;24440;-49
2022/03/24 13:46:54;;;;;;;29.80;26.50;;;;;;;;;;5087752;28;24769;-50
2022/03/24 13:49:19;;;;;;;27.60;24.60;;;;;;;;;;5086994;28;24413;-50
2022/03/24 13:51:45;;;;;;;25.17;22.53;;;;;;;;;;5089358;28;24477;-50
2022/03/24 13:54:20;;;;;;;28.63;25.00;;;;;;;;;;5089149;28;24401;-54
2022/03/24 13:56:45;;;;;;;27.65;24.70;;;;;;;;;;5089488;28;25219;-50
2022/03/24 13:59:10;;;;;;;28.58;25.48;;;;;;;;;;5075631;28;24472;-50
2022/03/24 14:01:35;;;;;;;28.93;25.90;;;;;;;;;;5068933;28;24821;-50
2022/03/24 14:04:00;;;;;;;29.35;26.15;;;;;;;;;;5068762;28;24477;-50
2022/03/24 14:06:25;;;;;;;26.90;24.10;;;;;;;;;;5068998;28;24478;-50
2022/03/24 14:08:51;;;;;;;28.20;25.20;;;;;;;;;;5071400;28;24461;-51
2022/03/24 14:11:18;;;;;;;27.92;24.92;;;;;;;;;;5068825;28;24426;-51
2022/03/24 14:13:56;;;;;;;28.83;25.67;;;;;;;;;;5069329;28;24802;-50
2022/03/24 14:16:28;;;;;;;27.88;23.80;;;;;;;;;;5068659;28;24481;-53